createdAt,value
2022-12-08T00:25:40.099Z,2.8
2022-12-08T00:35:43.338Z,2.8
2022-12-08T00:45:43.176Z,2.7
2022-12-08T00:55:45.125Z,2.7
2022-12-08T01:05:46.330Z,2.7
2022-12-08T01:15:48.235Z,2.7
2022-12-08T01:25:49.977Z,2.8
2022-12-08T01:45:52.392Z,2.9
2022-12-08T01:55:53.927Z,3
2022-12-08T02:05:55.094Z,3
2022-12-08T02:15:56.806Z,3
2022-12-08T02:46:01.135Z,2.9
2022-12-08T02:56:02.710Z,2.9
2022-12-08T03:16:06.527Z,2.9
2022-12-08T03:26:08.379Z,2.9
2022-12-08T03:36:09.733Z,2.9
2022-12-08T03:46:11.787Z,2.9
2022-12-08T03:56:13.704Z,3
2022-12-08T04:06:15.000Z,2.9
2022-12-08T04:26:18.720Z,2.9
2022-12-08T04:46:21.335Z,2.9
2022-12-08T04:56:22.945Z,2.9
2022-12-08T05:06:24.925Z,2.9
2022-12-08T05:16:26.277Z,2.9
2022-12-08T05:26:27.811Z,2.9
2022-12-08T05:36:29.024Z,2.9
2022-12-08T05:56:31.710Z,2.9
2022-12-08T06:06:33.443Z,2.9
2022-12-08T06:16:35.293Z,2.9
2022-12-08T06:26:36.761Z,2.9
2022-12-08T06:36:38.555Z,2.8
2022-12-08T06:56:41.420Z,2.7
2022-12-08T07:06:43.152Z,2.6
2022-12-08T07:16:44.492Z,2.5
2022-12-08T07:26:45.750Z,2.4
2022-12-08T07:36:47.592Z,2.4
2022-12-08T07:46:49.614Z,2.4
2022-12-08T07:56:50.772Z,2.5
2022-12-08T08:16:53.738Z,2.7
2022-12-08T08:26:55.368Z,2.7
2022-12-08T08:36:57.360Z,2.6
2022-12-08T08:46:59.093Z,2.6
2022-12-08T08:57:00.336Z,2.6
2022-12-08T09:07:01.578Z,2.6
2022-12-08T09:17:02.736Z,2.7
2022-12-08T09:27:04.651Z,2.7
2022-12-08T09:57:09.397Z,2.6
2022-12-08T10:07:11.480Z,2.6
2022-12-08T10:27:14.751Z,2.5
2022-12-08T10:37:16.742Z,2.5
2022-12-08T10:47:18.492Z,2.6
2022-12-08T11:27:25.396Z,2.7
2022-12-08T11:57:30.623Z,2.9
2022-12-08T12:07:32.460Z,2.9
2022-12-08T12:27:35.421Z,2.9
2022-12-08T13:27:46.606Z,2.9
2022-12-08T13:37:54.236Z,2.9
2022-12-08T14:07:52.481Z,2.9
2022-12-08T14:27:54.955Z,2.8
2022-12-08T14:37:56.117Z,2.8
2022-12-08T14:57:59.659Z,2.7
2022-12-08T16:08:23.287Z,2.5
2022-12-08T16:18:13.045Z,2.4
2022-12-08T16:28:45.052Z,2.4
2022-12-08T16:38:15.911Z,2.4
2022-12-08T16:58:18.993Z,2.4
2022-12-08T17:08:20.408Z,2.4
2022-12-08T17:18:21.984Z,2.4
2022-12-08T17:28:44.178Z,2.4
2022-12-08T17:38:25.233Z,2.4
2022-12-08T17:48:27.377Z,2.4
2022-12-08T17:58:28.594Z,2.3
2022-12-08T18:08:30.206Z,2.2
2022-12-08T18:18:32.145Z,2.2
2022-12-08T18:28:33.382Z,2.2
2022-12-08T18:38:34.654Z,2.2
2022-12-08T18:58:38.142Z,2.2
2022-12-08T19:01:16.547Z,2.2
2022-12-08T19:08:48.141Z,2.2
2022-12-08T19:18:49.879Z,2.2
2022-12-08T19:28:50.997Z,2.2
2022-12-08T19:48:54.308Z,2.2
2022-12-08T19:58:55.720Z,2.2
2022-12-08T20:08:57.706Z,2.1
2022-12-08T20:18:58.849Z,1.9
2022-12-08T20:28:59.967Z,1.7
2022-12-08T20:39:01.706Z,1.6
2022-12-08T20:59:04.629Z,1.3
2022-12-08T21:09:06.314Z,1.4
2022-12-08T21:19:07.342Z,1.5
2022-12-08T21:29:09.138Z,1.6
2022-12-08T21:39:10.284Z,1.6
2022-12-08T21:59:14.185Z,1.2
2022-12-08T22:09:15.661Z,1
2022-12-08T22:19:17.343Z,0.8
2022-12-08T22:29:19.227Z,0.8
2022-12-08T22:39:21.104Z,1
2022-12-08T22:49:22.137Z,1.2
2022-12-08T22:59:23.225Z,1.2
2022-12-08T23:09:25.169Z,1.1
2022-12-08T23:19:26.831Z,0.9
2022-12-08T23:29:28.310Z,0.7
2022-12-08T23:39:30.134Z,0.4
2022-12-08T23:49:31.988Z,0.4
2022-12-08T23:59:33.898Z,0.6
